createdAt,value
2018-05-17T00:01:00.279Z,72.45
2018-05-17T00:03:27.744Z,72.40
2018-05-17T00:05:55.183Z,72.83
2018-05-17T00:08:22.678Z,72.92
2018-05-17T00:10:50.167Z,73.21
2018-05-17T00:13:17.749Z,73.22
2018-05-17T00:15:49.017Z,73.20
2018-05-17T00:18:16.507Z,73.12
2018-05-17T00:20:43.977Z,73.53
2018-05-17T00:23:11.472Z,74.32
2018-05-17T00:25:38.919Z,74.32
2018-05-17T00:28:06.401Z,74.38
2018-05-17T00:30:33.862Z,74.54
2018-05-17T00:33:01.351Z,74.43
2018-05-17T00:35:28.800Z,74.16
2018-05-17T00:37:56.249Z,74.18
2018-05-17T00:40:23.815Z,73.68
2018-05-17T00:42:51.328Z,73.65
2018-05-17T00:45:18.854Z,74.39
2018-05-17T00:47:46.351Z,74.13
2018-05-17T00:50:13.836Z,73.99
2018-05-17T00:52:41.289Z,73.86
2018-05-17T00:55:08.898Z,73.72
2018-05-17T00:57:36.360Z,73.61
2018-05-17T01:00:03.913Z,73.52
2018-05-17T01:02:31.450Z,73.57
2018-05-17T01:04:58.971Z,73.43
2018-05-17T01:07:26.439Z,73.42
2018-05-17T01:09:53.909Z,74.00
2018-05-17T01:12:21.371Z,74.32
2018-05-17T01:14:49.522Z,74.38
2018-05-17T01:17:16.997Z,74.62
2018-05-17T01:19:44.514Z,74.79
2018-05-17T01:22:12.064Z,74.39
2018-05-17T01:24:39.654Z,74.20
2018-05-17T01:27:07.222Z,74.06
2018-05-17T01:29:34.777Z,73.85
2018-05-17T01:32:02.253Z,73.83
2018-05-17T01:34:29.724Z,73.82
2018-05-17T01:39:58.013Z,74.44
2018-05-17T01:42:26.061Z,74.65
2018-05-17T01:44:53.527Z,75.03
2018-05-17T01:47:21.177Z,75.60
2018-05-17T01:49:48.750Z,76.15
2018-05-17T01:52:16.295Z,76.32
2018-05-17T01:54:43.767Z,76.49
2018-05-17T01:57:11.301Z,77.32
2018-05-17T01:59:38.826Z,78.54
2018-05-17T02:02:06.408Z,78.35
2018-05-17T02:04:34.186Z,78.51
2018-05-17T02:07:02.004Z,79.46
2018-05-17T02:09:29.496Z,79.32
2018-05-17T02:11:57.005Z,79.36
2018-05-17T02:14:24.621Z,79.40
2018-05-17T02:16:52.961Z,79.71
2018-05-17T02:19:20.389Z,79.23
2018-05-17T02:21:47.886Z,78.85
2018-05-17T02:24:15.424Z,78.64
2018-05-17T02:26:42.868Z,79.08
2018-05-17T02:29:10.325Z,78.86
2018-05-17T02:31:37.816Z,79.66
2018-05-17T02:34:05.262Z,80.28
2018-05-17T02:36:33.070Z,80.70
2018-05-17T02:39:00.553Z,80.47
2018-05-17T02:41:28.032Z,80.65
2018-05-17T02:43:55.485Z,80.56
2018-05-17T02:46:23.467Z,80.14
2018-05-17T02:48:52.168Z,80.05
2018-05-17T02:51:19.641Z,79.87
2018-05-17T02:53:47.126Z,79.44
2018-05-17T02:56:14.604Z,79.11
2018-05-17T02:58:42.059Z,79.04
2018-05-17T03:01:09.594Z,78.77
2018-05-17T03:03:37.247Z,78.74
2018-05-17T03:06:04.826Z,78.95
2018-05-17T03:08:32.270Z,79.11
2018-05-17T03:10:59.824Z,79.35
2018-05-17T03:13:27.285Z,79.54
2018-05-17T03:15:54.735Z,80.02
2018-05-17T03:18:27.135Z,80.41
2018-05-17T03:20:54.664Z,80.52
2018-05-17T03:23:22.199Z,81.06
2018-05-17T03:25:49.771Z,81.07
2018-05-17T03:28:17.276Z,81.44
2018-05-17T03:30:44.722Z,81.43
2018-05-17T03:33:12.249Z,81.32
2018-05-17T03:35:39.756Z,81.42
2018-05-17T03:38:07.257Z,81.33
2018-05-17T03:40:35.042Z,81.54
2018-05-17T03:43:02.515Z,81.72
2018-05-17T03:45:29.985Z,81.52
2018-05-17T03:47:57.463Z,81.67
2018-05-17T03:50:24.960Z,81.87
2018-05-17T03:52:52.408Z,82.54
2018-05-17T03:55:19.874Z,82.56
2018-05-17T03:57:47.333Z,82.27
2018-05-17T04:00:15.106Z,81.86
2018-05-17T04:02:55.740Z,81.99
2018-05-17T04:05:35.388Z,82.36
2018-05-17T04:08:02.908Z,82.11
2018-05-17T04:10:30.381Z,81.98
2018-05-17T04:12:57.826Z,81.82
2018-05-17T04:15:25.384Z,81.56
2018-05-17T04:17:52.833Z,81.09
2018-05-17T04:20:20.296Z,80.84
2018-05-17T04:22:47.968Z,81.12
2018-05-17T04:25:15.823Z,81.49
2018-05-17T04:27:43.309Z,81.89
2018-05-17T04:30:10.895Z,81.81
2018-05-17T04:32:38.440Z,81.95
2018-05-17T04:35:06.987Z,82.10
2018-05-17T04:37:34.724Z,81.83
2018-05-17T04:40:02.193Z,81.73
2018-05-17T04:42:29.670Z,81.73
2018-05-17T04:44:57.199Z,81.71
2018-05-17T04:47:24.769Z,81.71
2018-05-17T04:49:52.279Z,81.32
2018-05-17T04:52:19.789Z,81.69
2018-05-17T04:54:47.458Z,81.77
2018-05-17T04:57:15.014Z,82.42
2018-05-17T04:59:42.475Z,82.77
2018-05-17T05:02:10.053Z,82.54
2018-05-17T05:04:37.681Z,82.41
2018-05-17T05:07:05.370Z,82.23
2018-05-17T05:09:32.900Z,82.00
2018-05-17T05:12:00.421Z,81.78
2018-05-17T05:14:28.099Z,82.21
2018-05-17T05:16:55.619Z,81.66
2018-05-17T05:19:23.160Z,81.46
2018-05-17T05:21:50.634Z,81.66
2018-05-17T05:24:18.120Z,81.55
2018-05-17T05:26:45.570Z,81.52
2018-05-17T05:29:13.175Z,81.58
2018-05-17T05:31:40.661Z,81.87
2018-05-17T05:34:08.129Z,81.86
2018-05-17T05:36:35.662Z,81.50
2018-05-17T05:39:03.295Z,81.34
2018-05-17T05:41:31.088Z,81.23
2018-05-17T05:43:58.589Z,80.87
2018-05-17T05:46:26.070Z,80.81
2018-05-17T05:48:53.532Z,80.60
2018-05-17T05:51:21.013Z,81.35
2018-05-17T05:53:48.530Z,81.87
2018-05-17T05:56:15.995Z,81.78
2018-05-17T05:58:43.512Z,81.75
2018-05-17T06:01:11.355Z,81.59
2018-05-17T06:03:38.839Z,81.42
2018-05-17T06:06:06.350Z,81.04
2018-05-17T06:08:33.861Z,80.84
2018-05-17T06:11:01.356Z,80.78
2018-05-17T06:13:29.374Z,80.84
2018-05-17T06:15:57.247Z,80.77
2018-05-17T06:18:25.477Z,80.94
2018-05-17T06:20:53.385Z,80.90
2018-05-17T06:23:20.913Z,80.68
2018-05-17T06:25:48.533Z,80.32
2018-05-17T06:28:16.075Z,80.08
2018-05-17T06:30:43.621Z,79.90
2018-05-17T06:33:11.106Z,79.71
2018-05-17T06:35:38.596Z,79.77
2018-05-17T06:38:06.533Z,79.52
2018-05-17T06:40:34.026Z,79.78
2018-05-17T06:43:01.491Z,79.00
2018-05-17T06:45:28.968Z,80.06
2018-05-17T06:47:56.517Z,80.10
2018-05-17T06:50:24.039Z,80.09
2018-05-17T06:52:52.533Z,79.60
2018-05-17T06:55:20.337Z,79.30
2018-05-17T06:57:47.766Z,78.83
2018-05-17T07:00:15.653Z,78.91
2018-05-17T07:02:43.107Z,79.28
2018-05-17T07:05:10.695Z,79.70
2018-05-17T07:07:38.209Z,79.98
2018-05-17T07:10:05.891Z,79.74
2018-05-17T07:12:33.406Z,80.13
2018-05-17T07:15:00.887Z,80.08
2018-05-17T07:17:28.869Z,80.34
2018-05-17T07:19:56.390Z,81.16
2018-05-17T07:22:23.893Z,81.82
2018-05-17T07:24:53.533Z,81.68
2018-05-17T07:27:24.042Z,81.35
2018-05-17T07:29:52.907Z,80.87
2018-05-17T07:32:20.368Z,80.99
2018-05-17T07:34:47.902Z,81.29
2018-05-17T07:37:15.479Z,81.71
2018-05-17T07:39:43.038Z,81.58
2018-05-17T07:42:11.673Z,81.10
2018-05-17T07:44:39.190Z,81.27
2018-05-17T07:47:06.815Z,81.06
2018-05-17T07:49:34.229Z,80.95
2018-05-17T07:52:02.671Z,80.84
2018-05-17T07:54:30.793Z,80.45
2018-05-17T07:56:58.253Z,80.72
2018-05-17T07:59:25.702Z,80.82
2018-05-17T08:01:54.254Z,81.28
2018-05-17T08:04:21.884Z,81.19
2018-05-17T08:06:49.351Z,81.81
2018-05-17T08:09:16.893Z,82.38
2018-05-17T08:11:44.369Z,82.52
2018-05-17T08:14:11.858Z,82.63
2018-05-17T08:16:39.315Z,82.37
2018-05-17T08:19:06.786Z,82.32
2018-05-17T08:21:35.085Z,82.27
2018-05-17T08:24:02.623Z,82.41
2018-05-17T08:26:30.092Z,81.92
2018-05-17T08:28:57.731Z,81.29
2018-05-17T08:31:25.249Z,80.46
2018-05-17T08:33:53.681Z,80.93
2018-05-17T08:36:21.168Z,81.86
2018-05-17T08:38:49.851Z,82.04
2018-05-17T08:41:17.403Z,82.57
2018-05-17T08:43:44.885Z,82.28
2018-05-17T08:46:12.402Z,82.15
2018-05-17T08:48:40.687Z,81.91
2018-05-17T08:51:08.223Z,81.99
2018-05-17T08:53:35.977Z,82.16
2018-05-17T08:56:03.452Z,81.64
2018-05-17T08:58:32.104Z,81.37
2018-05-17T09:01:00.786Z,81.26
2018-05-17T09:03:28.239Z,81.17
2018-05-17T09:05:55.724Z,81.48
2018-05-17T09:08:24.129Z,81.82
2018-05-17T09:10:52.559Z,82.47
2018-05-17T09:13:20.076Z,82.33
2018-05-17T09:15:47.659Z,82.07
2018-05-17T09:18:15.286Z,81.31
2018-05-17T09:20:42.746Z,80.90
2018-05-17T09:23:10.206Z,81.23
2018-05-17T09:25:38.244Z,81.11
2018-05-17T09:28:06.584Z,81.75
2018-05-17T09:30:34.129Z,81.93
2018-05-17T09:33:01.615Z,81.78
2018-05-17T09:35:29.328Z,81.69
2018-05-17T09:37:57.708Z,80.73
2018-05-17T09:40:25.141Z,80.64
2018-05-17T09:42:53.426Z,80.47
2018-05-17T09:45:20.896Z,80.74
2018-05-17T09:47:48.349Z,80.64
2018-05-17T09:50:17.258Z,80.53
2018-05-17T09:52:44.833Z,80.51
2018-05-17T09:55:12.473Z,80.40
2018-05-17T09:57:40.663Z,80.65
2018-05-17T10:00:08.347Z,81.54
2018-05-17T10:02:35.837Z,80.52
2018-05-17T10:05:03.791Z,80.83
2018-05-17T10:07:32.330Z,80.12
2018-05-17T10:09:59.789Z,80.24
2018-05-17T10:12:27.394Z,79.11
2018-05-17T10:14:55.007Z,78.43
2018-05-17T10:17:22.552Z,77.91
2018-05-17T10:19:50.082Z,78.59
2018-05-17T10:22:17.546Z,79.01
2018-05-17T10:24:45.037Z,79.44
2018-05-17T10:27:12.515Z,78.60
2018-05-17T10:29:40.344Z,78.12
2018-05-17T10:32:08.168Z,77.89
2018-05-17T10:34:35.997Z,77.91
2018-05-17T10:37:05.178Z,77.80
2018-05-17T10:39:32.800Z,78.23
2018-05-17T10:42:00.694Z,77.10
2018-05-17T10:44:28.154Z,75.91
2018-05-17T10:46:56.760Z,75.59
2018-05-17T10:49:24.244Z,74.45
2018-05-17T10:51:51.793Z,74.08
2018-05-17T10:54:19.819Z,74.05
2018-05-17T10:56:47.688Z,73.74
2018-05-17T10:59:15.163Z,73.40
2018-05-17T11:01:42.694Z,73.54
2018-05-17T11:04:10.370Z,74.72
2018-05-17T11:06:38.553Z,73.89
2018-05-17T11:09:06.404Z,73.60
2018-05-17T11:11:33.896Z,73.49
2018-05-17T11:14:02.441Z,72.12
2018-05-17T11:16:29.890Z,73.51
2018-05-17T11:18:57.675Z,73.04
2018-05-17T11:21:26.089Z,71.27
2018-05-17T11:23:54.162Z,72.59
2018-05-17T11:26:21.655Z,70.33
2018-05-17T11:28:49.148Z,71.42
2018-05-17T11:31:16.675Z,71.81
2018-05-17T11:33:45.284Z,72.56
2018-05-17T11:36:13.328Z,71.73
2018-05-17T11:38:40.829Z,72.65
2018-05-17T11:41:08.382Z,72.94
2018-05-17T11:43:35.994Z,72.82
2018-05-17T11:46:03.553Z,72.34
2018-05-17T11:48:31.666Z,72.24
2018-05-17T11:50:59.785Z,71.65
2018-05-17T11:53:28.104Z,70.77
2018-05-17T11:55:56.347Z,70.01
2018-05-17T11:58:24.587Z,68.49
2018-05-17T12:00:52.132Z,69.31
2018-05-17T12:03:20.922Z,68.53
2018-05-17T12:05:48.519Z,67.20
2018-05-17T12:08:16.126Z,67.65
2018-05-17T12:10:43.614Z,67.60
2018-05-17T12:13:11.123Z,68.88
2018-05-17T12:15:38.569Z,67.87
2018-05-17T12:18:06.227Z,67.99
2018-05-17T12:20:33.763Z,67.18
2018-05-17T12:23:03.144Z,68.05
2018-05-17T12:25:30.542Z,67.43
2018-05-17T12:27:58.094Z,67.20
2018-05-17T12:33:01.872Z,67.60
2018-05-17T12:35:29.778Z,68.18
2018-05-17T12:37:58.229Z,68.18
2018-05-17T12:40:26.529Z,66.95
2018-05-17T12:42:54.023Z,67.82
2018-05-17T12:45:21.579Z,66.87
2018-05-17T12:47:49.038Z,67.46
2018-05-17T12:50:16.570Z,67.74
2018-05-17T12:52:44.082Z,67.43
2018-05-17T12:55:12.155Z,66.40
2018-05-17T12:57:39.909Z,66.82
2018-05-17T13:00:07.385Z,66.37
2018-05-17T13:02:34.935Z,65.55
2018-05-17T13:05:02.441Z,66.06
2018-05-17T13:07:29.943Z,66.22
2018-05-17T13:09:57.532Z,65.74
2018-05-17T13:12:25.266Z,65.76
2018-05-17T13:14:52.778Z,66.21
2018-05-17T13:17:20.320Z,65.78
2018-05-17T13:19:47.793Z,64.28
2018-05-17T13:22:15.660Z,64.29
2018-05-17T13:24:43.388Z,64.38
2018-05-17T13:27:12.873Z,64.36
2018-05-17T13:29:40.415Z,64.87
2018-05-17T13:32:07.953Z,65.66
2018-05-17T13:34:35.988Z,63.92
2018-05-17T13:37:03.477Z,63.79
2018-05-17T13:39:30.958Z,63.79
2018-05-17T13:41:58.477Z,62.65
2018-05-17T13:44:25.981Z,62.28
2018-05-17T13:46:53.529Z,61.58
2018-05-17T13:49:22.097Z,62.20
2018-05-17T13:51:49.652Z,63.67
2018-05-17T13:54:17.191Z,62.90
2018-05-17T13:56:44.640Z,62.69
2018-05-17T13:59:12.161Z,62.17
2018-05-17T14:01:39.638Z,61.60
2018-05-17T14:04:07.232Z,62.22
2018-05-17T14:06:34.694Z,61.85
2018-05-17T14:09:02.150Z,62.54
2018-05-17T14:11:29.607Z,61.49
2018-05-17T14:13:57.182Z,61.65
2018-05-17T14:16:25.334Z,60.98
2018-05-17T14:18:53.428Z,61.00
2018-05-17T14:21:20.960Z,60.73
2018-05-17T14:23:48.415Z,60.55
2018-05-17T14:26:16.385Z,60.52
2018-05-17T14:28:43.831Z,59.66
2018-05-17T14:31:11.318Z,60.97
2018-05-17T14:33:38.786Z,60.71
2018-05-17T14:36:06.328Z,61.03
2018-05-17T14:38:33.784Z,60.54
2018-05-17T14:41:01.303Z,60.42
2018-05-17T14:43:28.803Z,60.78
2018-05-17T14:45:56.587Z,59.38
2018-05-17T14:48:24.066Z,59.31
2018-05-17T14:50:51.648Z,60.46
2018-05-17T14:53:19.192Z,59.83
2018-05-17T14:55:46.854Z,59.57
2018-05-17T14:58:14.275Z,58.87
2018-05-17T15:00:42.396Z,58.86
2018-05-17T15:03:09.889Z,59.69
2018-05-17T15:05:37.376Z,60.18
2018-05-17T15:08:04.908Z,60.34
2018-05-17T15:10:32.401Z,60.59
2018-05-17T15:12:59.954Z,59.77
2018-05-17T15:15:27.620Z,59.70
2018-05-17T15:17:55.110Z,58.87
2018-05-17T15:20:22.594Z,58.48
2018-05-17T15:22:50.103Z,58.72
2018-05-17T15:25:17.920Z,59.78
2018-05-17T15:27:45.358Z,59.04
2018-05-17T15:30:12.859Z,58.44
2018-05-17T15:32:40.805Z,59.25
2018-05-17T15:35:08.365Z,59.49
2018-05-17T15:37:36.299Z,59.21
2018-05-17T15:40:03.799Z,58.72
2018-05-17T15:42:31.321Z,59.07
2018-05-17T15:45:01.400Z,58.74
2018-05-17T15:47:28.868Z,59.27
2018-05-17T15:49:57.212Z,59.20
2018-05-17T15:52:25.775Z,59.29
2018-05-17T15:54:53.344Z,59.01
2018-05-17T15:57:20.833Z,58.90
2018-05-17T15:59:48.327Z,59.45
2018-05-17T16:02:15.795Z,59.66
2018-05-17T16:04:45.530Z,59.30
2018-05-17T16:07:13.154Z,60.15
2018-05-17T16:09:40.751Z,59.86
2018-05-17T16:12:08.209Z,59.95
2018-05-17T16:14:35.764Z,59.53
2018-05-17T16:17:03.223Z,59.21
2018-05-17T16:19:30.785Z,59.32
2018-05-17T16:21:58.242Z,59.70
2018-05-17T16:24:26.620Z,60.32
2018-05-17T16:26:54.091Z,60.05
2018-05-17T16:29:22.106Z,59.67
2018-05-17T16:31:49.579Z,59.62
2018-05-17T16:34:17.080Z,59.00
2018-05-17T16:36:44.581Z,59.33
2018-05-17T16:39:12.055Z,59.07
2018-05-17T16:41:39.789Z,58.80
2018-05-17T16:44:07.289Z,58.97
2018-05-17T16:46:34.825Z,58.43
2018-05-17T16:49:02.407Z,59.24
2018-05-17T16:51:30.762Z,57.03
2018-05-17T16:53:58.341Z,57.79
2018-05-17T16:56:30.636Z,56.85
2018-05-17T16:58:58.713Z,57.08
2018-05-17T17:01:26.434Z,57.51
2018-05-17T17:03:53.926Z,57.90
2018-05-17T17:06:21.411Z,57.24
2018-05-17T17:08:48.908Z,56.86
2018-05-17T17:11:16.407Z,56.66
2018-05-17T17:13:43.908Z,56.04
2018-05-17T17:16:11.706Z,55.45
2018-05-17T17:18:39.177Z,55.39
2018-05-17T17:21:06.686Z,55.66
2018-05-17T17:23:34.981Z,56.31
2018-05-17T17:26:02.485Z,56.34
2018-05-17T17:28:29.929Z,56.43
2018-05-17T17:30:57.434Z,56.55
2018-05-17T17:33:24.909Z,56.33
2018-05-17T17:35:52.736Z,56.33
2018-05-17T17:38:21.526Z,57.01
2018-05-17T17:40:50.854Z,57.25
2018-05-17T17:43:18.328Z,57.35
2018-05-17T17:45:45.845Z,57.16
2018-05-17T17:48:13.514Z,57.30
2018-05-17T17:50:41.870Z,57.36
2018-05-17T17:53:09.366Z,57.38
2018-05-17T17:55:36.927Z,57.06
2018-05-17T17:58:04.452Z,57.22
2018-05-17T18:00:32.472Z,57.26
2018-05-17T18:03:00.871Z,57.01
2018-05-17T18:05:28.397Z,57.03
2018-05-17T18:07:55.984Z,57.48
2018-05-17T18:10:23.439Z,57.24
2018-05-17T18:12:54.965Z,57.61
2018-05-17T18:15:22.468Z,57.72
2018-05-17T18:17:50.081Z,57.87
2018-05-17T18:20:18.558Z,57.74
2018-05-17T18:22:46.092Z,57.68
2018-05-17T18:25:13.725Z,57.79
2018-05-17T18:27:42.916Z,57.73
2018-05-17T18:30:10.409Z,57.91
2018-05-17T18:32:38.011Z,58.04
2018-05-17T18:35:05.515Z,58.17
2018-05-17T18:37:33.148Z,58.46
2018-05-17T18:40:00.737Z,58.36
2018-05-17T18:42:29.493Z,58.45
2018-05-17T18:44:57.071Z,58.55
2018-05-17T18:47:25.072Z,59.21
2018-05-17T18:49:52.592Z,59.31
2018-05-17T18:52:20.059Z,59.18
2018-05-17T18:54:47.582Z,59.40
2018-05-17T18:57:15.042Z,59.76
2018-05-17T18:59:42.980Z,59.60
2018-05-17T19:02:10.574Z,59.67
2018-05-17T19:04:38.079Z,59.85
2018-05-17T19:07:05.693Z,60.34
2018-05-17T19:09:33.343Z,60.45
2018-05-17T19:12:00.882Z,60.59
2018-05-17T19:14:28.368Z,61.27
2018-05-17T19:16:55.866Z,61.48
2018-05-17T19:19:23.980Z,61.37
2018-05-17T19:21:53.030Z,61.67
2018-05-17T19:24:21.145Z,61.84
2018-05-17T19:26:48.684Z,62.31
2018-05-17T19:29:16.926Z,62.38
2018-05-17T19:31:46.343Z,62.62
2018-05-17T19:34:13.843Z,62.95
2018-05-17T19:36:41.319Z,62.95
2018-05-17T19:39:08.825Z,63.00
2018-05-17T19:41:37.401Z,63.16
2018-05-17T19:44:05.072Z,63.59
2018-05-17T19:46:33.276Z,63.91
2018-05-17T19:49:01.391Z,64.34
2018-05-17T19:51:28.874Z,64.60
2018-05-17T19:53:56.379Z,64.68
2018-05-17T19:56:23.884Z,64.67
2018-05-17T19:58:52.298Z,64.66
2018-05-17T20:01:19.837Z,64.70
2018-05-17T20:03:47.321Z,64.79
2018-05-17T20:06:15.574Z,64.67
2018-05-17T20:08:43.064Z,65.01
2018-05-17T20:11:10.804Z,65.63
2018-05-17T20:13:38.275Z,65.46
2018-05-17T20:16:05.772Z,65.59
2018-05-17T20:18:33.270Z,65.73
2018-05-17T20:21:00.784Z,66.14
2018-05-17T20:23:28.284Z,66.29
2018-05-17T20:25:55.739Z,66.42
2018-05-17T20:28:23.440Z,66.53
2018-05-17T20:30:52.717Z,66.52
2018-05-17T20:33:20.309Z,66.29
2018-05-17T20:35:48.788Z,66.21
2018-05-17T20:38:16.894Z,66.13
2018-05-17T20:40:44.550Z,66.04
2018-05-17T20:43:12.122Z,66.04
2018-05-17T20:45:39.807Z,66.13
2018-05-17T20:48:07.301Z,66.30
2018-05-17T20:50:35.075Z,66.37
2018-05-17T20:53:02.618Z,66.39
2018-05-17T20:55:30.091Z,66.46
2018-05-17T20:57:58.189Z,66.62
2018-05-17T21:00:25.731Z,66.57
2018-05-17T21:02:53.167Z,66.60
2018-05-17T21:05:21.276Z,66.66
2018-05-17T21:07:48.930Z,66.80
2018-05-17T21:10:17.634Z,66.89
2018-05-17T21:12:45.136Z,66.79
2018-05-17T21:15:12.580Z,66.88
2018-05-17T21:17:40.219Z,67.06
2018-05-17T21:20:07.691Z,67.08
2018-05-17T21:22:35.143Z,67.07
2018-05-17T21:25:02.631Z,66.97
2018-05-17T21:27:30.102Z,67.16
2018-05-17T21:29:57.627Z,67.16
2018-05-17T21:32:25.075Z,67.40
2018-05-17T21:34:53.397Z,67.55
2018-05-17T21:37:20.967Z,67.54
2018-05-17T21:39:48.429Z,67.59
2018-05-17T21:42:15.907Z,67.75
2018-05-17T21:44:43.401Z,67.82
2018-05-17T21:47:10.861Z,68.00
2018-05-17T21:49:38.360Z,68.05
2018-05-17T21:52:06.164Z,68.15
2018-05-17T21:54:33.719Z,68.10
2018-05-17T21:57:01.180Z,68.16
2018-05-17T21:59:29.056Z,68.16
2018-05-17T22:01:56.535Z,68.24
2018-05-17T22:04:23.994Z,68.28
2018-05-17T22:06:51.431Z,68.37
2018-05-17T22:09:20.965Z,68.51
2018-05-17T22:11:50.627Z,68.54
2018-05-17T22:14:21.400Z,68.69
2018-05-17T22:16:50.521Z,68.90
2018-05-17T22:19:20.424Z,69.05
2018-05-17T22:21:47.866Z,69.22
2018-05-17T22:24:15.296Z,69.30
2018-05-17T22:26:42.822Z,69.48
2018-05-17T22:29:10.299Z,69.37
2018-05-17T22:31:37.890Z,69.32
2018-05-17T22:34:05.347Z,69.21
2018-05-17T22:36:33.377Z,69.15
2018-05-17T22:39:00.802Z,69.20
2018-05-17T22:41:28.281Z,69.25
2018-05-17T22:43:55.742Z,69.45
2018-05-17T22:46:23.210Z,69.44
2018-05-17T22:48:50.669Z,69.53
2018-05-17T22:51:18.167Z,69.51
2018-05-17T22:53:45.652Z,69.52
2018-05-17T22:59:14.469Z,69.53
2018-05-17T23:01:42.191Z,69.60
2018-05-17T23:04:09.646Z,69.69
2018-05-17T23:06:37.283Z,69.68
2018-05-17T23:09:04.797Z,69.74
2018-05-17T23:11:32.284Z,69.71
2018-05-17T23:13:59.764Z,69.83
2018-05-17T23:16:27.332Z,69.95
2018-05-17T23:18:54.794Z,70.11
2018-05-17T23:21:22.337Z,70.07
2018-05-17T23:23:50.101Z,69.96
2018-05-17T23:26:18.420Z,69.88
2018-05-17T23:28:45.871Z,69.82
2018-05-17T23:31:13.672Z,69.81
2018-05-17T23:33:41.142Z,69.89
2018-05-17T23:36:09.255Z,69.91
2018-05-17T23:38:36.820Z,69.81
2018-05-17T23:41:16.118Z,69.95
2018-05-17T23:43:43.571Z,69.95
2018-05-17T23:46:11.057Z,70.03
2018-05-17T23:48:38.520Z,70.13
2018-05-17T23:51:05.954Z,70.19
2018-05-17T23:53:33.414Z,70.14
2018-05-17T23:56:00.872Z,70.11
2018-05-17T23:58:28.327Z,70.00
